Time;durP1;ratioP1;P1;durP2;ratioP2;P2;SDS_P1;SDS_P2;PMS_P1;PMS_P2;Temp;Humidity;BMP_temperature;BMP_pressure;BME280_temperature;BME280_humidity;BME280_pressure;Samples;Min_cycle;Max_cycle;Signal;HPM_P1;HPM_P2
2022/07/01 00:01:23;;;;;;;;;;;26.70;46.80;;;;;;1523477;76;646;-56
2022/07/01 00:03:24;;;;;;;;;;;26.70;46.70;;;;;;1529645;75;704;-56
2022/07/01 00:05:26;;;;;;;;;;;26.70;46.50;;;;;;1515968;76;681;-56
2022/07/01 00:07:28;;;;;;;;;;;26.70;46.50;;;;;;1527684;75;1120;-58
2022/07/01 00:09:30;;;;;;;;;;;26.70;46.30;;;;;;1516795;76;693;-58
2022/07/01 00:11:32;;;;;;;;;;;26.60;46.10;;;;;;1532483;75;1446;-57
2022/07/01 00:13:34;;;;;;;;;;;26.60;46.00;;;;;;1533088;75;691;-56
2022/07/01 00:15:36;;;;;;;;;;;26.60;45.80;;;;;;1526204;75;2023;-56
2022/07/01 00:17:38;;;;;;;;;;;26.70;45.70;;;;;;1523018;75;1140;-56
2022/07/01 00:19:39;;;;;;;;;;;26.60;45.50;;;;;;1528117;75;673;-57
2022/07/01 00:21:41;;;;;;;;;;;26.60;45.40;;;;;;1529372;75;739;-56
2022/07/01 00:23:43;;;;;;;;;;;26.50;45.30;;;;;;1528403;75;759;-56
2022/07/01 00:25:45;;;;;;;;;;;26.60;45.20;;;;;;1531921;75;1588;-56
2022/07/01 00:27:47;;;;;;;;;;;26.60;45.00;;;;;;1526471;75;1151;-56
2022/07/01 00:29:49;;;;;;;;;;;26.50;45.00;;;;;;1522223;75;695;-55
2022/07/01 00:31:51;;;;;;;;;;;26.50;45.00;;;;;;1526291;75;701;-56
2022/07/01 00:33:53;;;;;;;;;;;26.50;44.90;;;;;;1527840;75;693;-56
2022/07/01 00:35:55;;;;;;;;;;;26.50;44.80;;;;;;1539181;74;1926;-56
2022/07/01 00:37:57;;;;;;;;;;;26.50;44.80;;;;;;1557784;74;1141;-56
2022/07/01 00:39:59;;;;;;;;;;;26.50;44.70;;;;;;1560001;74;1497;-57
2022/07/01 00:42:04;;;;;;;;;;;26.50;44.70;;;;;;1561878;74;688;-56
2022/07/01 00:44:05;;;;;;;;;;;26.50;44.70;;;;;;1560033;74;733;-56
2022/07/01 00:46:07;;;;;;;;;;;26.50;44.70;;;;;;1561233;74;1142;-57
2022/07/01 00:48:09;;;;;;;;;;;26.50;44.60;;;;;;1558090;74;672;-58
2022/07/01 00:50:12;;;;;;;;;;;26.50;44.70;;;;;;1566162;74;747;-56
2022/07/01 00:52:14;;;;;;;;;;;26.50;44.70;;;;;;1558218;74;779;-55
2022/07/01 00:54:16;;;;;;;;;;;26.50;44.70;;;;;;1567580;74;1493;-56
2022/07/01 00:56:18;;;;;;;;;;;26.50;44.70;;;;;;1555959;74;1945;-58
2022/07/01 00:58:20;;;;;;;;;;;26.50;44.70;;;;;;1559509;75;678;-56
2022/07/01 01:00:26;;;;;;;;;;;26.50;44.80;;;;;;1560205;74;683;-56
2022/07/01 01:02:28;;;;;;;;;;;26.50;44.80;;;;;;1559432;74;698;-57
2022/07/01 01:04:30;;;;;;;;;;;26.50;44.80;;;;;;1558692;74;743;-57
2022/07/01 01:06:31;;;;;;;;;;;26.40;44.90;;;;;;1560404;74;1339;-57
2022/07/01 01:08:33;;;;;;;;;;;26.50;44.80;;;;;;1563022;74;684;-57
2022/07/01 01:10:36;;;;;;;;;;;26.50;44.90;;;;;;1565953;74;709;-56
2022/07/01 01:12:38;;;;;;;;;;;26.50;45.00;;;;;;1563682;74;661;-57
2022/07/01 01:14:47;;;;;;;;;;;26.50;45.00;;;;;;1553221;74;558;-57
2022/07/01 01:16:49;;;;;;;;;;;26.50;45.00;;;;;;1562484;74;1929;-57
2022/07/01 01:18:51;;;;;;;;;;;26.50;45.00;;;;;;1566642;74;644;-57
2022/07/01 01:20:53;;;;;;;;;;;26.50;45.10;;;;;;1568864;74;1559;-57
2022/07/01 01:22:55;;;;;;;;;;;26.50;45.00;;;;;;1567286;74;721;-56
2022/07/01 01:24:57;;;;;;;;;;;26.50;45.00;;;;;;1586355;71;3126;-57
2022/07/01 01:26:59;;;;;;;;;;;26.40;45.10;;;;;;1605858;72;1217;-60
2022/07/01 01:29:01;;;;;;;;;;;26.40;45.10;;;;;;1625502;72;640;-59
2022/07/01 01:31:03;;;;;;;;;;;26.50;45.10;;;;;;1615352;72;699;-57
2022/07/01 01:33:07;;;;;;;;;;;26.50;45.10;;;;;;1602470;72;705;-59
2022/07/01 01:35:09;;;;;;;;;;;26.40;45.10;;;;;;1599771;72;1948;-60
2022/07/01 01:37:11;;;;;;;;;;;26.40;45.20;;;;;;1627910;72;1126;-56
2022/07/01 01:39:16;;;;;;;;;;;26.50;45.20;;;;;;1596584;72;714;-59
2022/07/01 01:41:16;;;;;;;;;;;26.50;45.20;;;;;;1609048;72;1443;-59
2022/07/01 01:43:18;;;;;;;;;;;26.50;45.30;;;;;;1627152;72;792;-58
2022/07/01 01:45:20;;;;;;;;;;;26.50;45.20;;;;;;1612153;72;687;-58
2022/07/01 01:47:22;;;;;;;;;;;26.50;45.20;;;;;;1621416;72;1094;-57
2022/07/01 01:49:24;;;;;;;;;;;26.50;45.30;;;;;;1631662;72;1500;-58
2022/07/01 01:51:25;;;;;;;;;;;26.50;45.30;;;;;;1620004;72;673;-58
2022/07/01 01:53:27;;;;;;;;;;;26.50;45.30;;;;;;1625779;72;645;-58
2022/07/01 01:55:29;;;;;;;;;;;26.40;45.40;;;;;;1615393;72;1930;-60
2022/07/01 01:57:31;;;;;;;;;;;26.40;45.40;;;;;;1613366;72;1148;-57
2022/07/01 01:59:33;;;;;;;;;;;26.50;45.40;;;;;;1613327;72;657;-57
2022/07/01 02:01:35;;;;;;;;;;;26.50;45.40;;;;;;1615791;72;684;-57
2022/07/01 02:03:37;;;;;;;;;;;26.40;45.50;;;;;;1610036;72;1382;-60
2022/07/01 02:05:39;;;;;;;;;;;26.50;45.50;;;;;;1610067;72;748;-58
2022/07/01 02:07:41;;;;;;;;;;;26.40;45.50;;;;;;1609232;72;1135;-60
2022/07/01 02:09:43;;;;;;;;;;;26.40;45.40;;;;;;1607257;72;689;-58
2022/07/01 02:11:44;;;;;;;;;;;26.50;45.40;;;;;;1623619;72;687;-58
2022/07/01 02:13:46;;;;;;;;;;;26.50;45.50;;;;;;1614895;72;747;-60
2022/07/01 02:15:49;;;;;;;;;;;26.40;45.50;;;;;;1635397;72;1932;-57
2022/07/01 02:17:53;;;;;;;;;;;26.50;45.40;;;;;;1614455;72;1610;-60
2022/07/01 02:19:55;;;;;;;;;;;26.40;45.50;;;;;;1614539;72;779;-58
2022/07/01 02:21:56;;;;;;;;;;;26.50;45.40;;;;;;1614514;72;743;-59
2022/07/01 02:23:58;;;;;;;;;;;26.50;45.50;;;;;;1615799;72;663;-60
2022/07/01 02:26:00;;;;;;;;;;;26.50;45.40;;;;;;1622331;72;798;-60
2022/07/01 02:28:02;;;;;;;;;;;26.50;45.50;;;;;;1612616;72;1292;-60
2022/07/01 02:30:05;;;;;;;;;;;26.50;45.50;;;;;;1600473;72;666;-60
2022/07/01 02:32:07;;;;;;;;;;;26.40;45.60;;;;;;1628813;72;1563;-57
2022/07/01 02:34:09;;;;;;;;;;;26.50;45.50;;;;;;1624361;72;690;-60
2022/07/01 02:36:11;;;;;;;;;;;26.50;45.50;;;;;;1605903;72;1945;-60
2022/07/01 02:38:13;;;;;;;;;;;26.40;45.50;;;;;;1610487;72;755;-58
2022/07/01 02:40:14;;;;;;;;;;;26.50;45.50;;;;;;1621679;72;691;-59
2022/07/01 02:42:34;;;;;;;;;;;26.40;45.50;;;;;;1618435;72;657;-57
2022/07/01 02:44:32;;;;;;;;;;;26.50;45.50;;;;;;1609400;72;1640;-60
2022/07/01 02:46:34;;;;;;;;;;;26.40;45.50;;;;;;1622073;72;1165;-59
2022/07/01 02:48:36;;;;;;;;;;;26.50;45.50;;;;;;1623010;72;790;-57
2022/07/01 02:50:37;;;;;;;;;;;26.50;45.50;;;;;;1612804;72;850;-59
2022/07/01 02:52:40;;;;;;;;;;;26.50;45.50;;;;;;1597474;72;746;-60
2022/07/01 02:54:42;;;;;;;;;;;26.50;45.50;;;;;;1616949;72;652;-61
2022/07/01 02:56:44;;;;;;;;;;;26.50;45.50;;;;;;1624684;72;1926;-58
2022/07/01 02:58:46;;;;;;;;;;;26.40;45.50;;;;;;1607707;72;697;-58
2022/07/01 03:00:50;;;;;;;;;;;26.50;45.50;;;;;;1616313;72;1440;-58
2022/07/01 03:02:51;;;;;;;;;;;26.50;45.50;;;;;;1601303;72;1769;-58
2022/07/01 03:04:53;;;;;;;;;;;26.50;45.50;;;;;;1612936;72;688;-58
2022/07/01 03:06:55;;;;;;;;;;;26.50;45.50;;;;;;1608257;72;1092;-60
2022/07/01 03:08:57;;;;;;;;;;;26.50;45.50;;;;;;1617095;72;686;-55
2022/07/01 03:10:59;;;;;;;;;;;26.40;45.60;;;;;;1602163;72;760;-60
2022/07/01 03:13:01;;;;;;;;;;;26.50;45.50;;;;;;1597191;72;744;-60
2022/07/01 03:15:04;;;;;;;;;;;26.40;45.50;;;;;;1626784;72;1539;-58
2022/07/01 03:17:06;;;;;;;;;;;26.50;45.60;;;;;;1606915;72;1941;-61
2022/07/01 03:19:09;;;;;;;;;;;26.40;45.50;;;;;;1614010;72;676;-60
2022/07/01 03:21:11;;;;;;;;;;;26.50;45.50;;;;;;1612060;72;752;-60
2022/07/01 03:23:13;;;;;;;;;;;26.40;45.60;;;;;;1598353;72;678;-58
2022/07/01 03:25:14;;;;;;;;;;;26.50;45.60;;;;;;1605254;72;782;-60
2022/07/01 03:27:16;;;;;;;;;;;26.50;45.60;;;;;;1605278;72;1557;-59
2022/07/01 03:29:18;;;;;;;;;;;26.40;45.60;;;;;;1598113;72;734;-60
2022/07/01 03:31:20;;;;;;;;;;;26.50;45.60;;;;;;1601504;72;739;-58
2022/07/01 03:33:22;;;;;;;;;;;26.50;45.70;;;;;;1613713;72;758;-58
2022/07/01 03:35:36;;;;;;;;;;;26.40;45.70;;;;;;1611100;72;728;-56
2022/07/01 03:37:38;;;;;;;;;;;26.50;45.70;;;;;;1597267;72;1890;-57
2022/07/01 03:39:40;;;;;;;;;;;26.50;45.70;;;;;;1600840;72;738;-60
2022/07/01 03:41:42;;;;;;;;;;;26.50;45.70;;;;;;1604780;72;1335;-60
2022/07/01 03:43:44;;;;;;;;;;;26.50;45.70;;;;;;1614662;72;632;-58
2022/07/01 03:45:46;;;;;;;;;;;26.50;45.70;;;;;;1606454;72;741;-61
2022/07/01 03:47:48;;;;;;;;;;;26.50;45.70;;;;;;1620405;72;1155;-57
2022/07/01 03:49:50;;;;;;;;;;;26.50;45.70;;;;;;1605227;72;782;-58
2022/07/01 03:51:52;;;;;;;;;;;26.50;45.70;;;;;;1612853;72;766;-59
2022/07/01 03:56:14;;;;;;;;;;;26.50;45.80;;;;;;1619471;72;1935;-57
2022/07/01 03:58:16;;;;;;;;;;;26.50;45.80;;;;;;1606054;72;757;-60
2022/07/01 04:00:18;;;;;;;;;;;26.50;45.80;;;;;;1602253;72;746;-60
2022/07/01 04:02:20;;;;;;;;;;;26.50;45.80;;;;;;1612110;72;701;-60
2022/07/01 04:04:22;;;;;;;;;;;26.50;45.80;;;;;;1614640;72;922;-58
2022/07/01 04:06:24;;;;;;;;;;;26.50;45.80;;;;;;1606940;72;1153;-61
2022/07/01 04:08:26;;;;;;;;;;;26.50;45.90;;;;;;1610628;72;727;-59
2022/07/01 04:10:27;;;;;;;;;;;26.50;45.70;;;;;;1604055;72;1550;-61
2022/07/01 04:12:29;;;;;;;;;;;26.50;45.70;;;;;;1603488;72;723;-60
2022/07/01 04:14:31;;;;;;;;;;;26.50;45.70;;;;;;1608970;72;664;-57
2022/07/01 04:16:33;;;;;;;;;;;26.50;45.70;;;;;;1619775;72;1905;-58
2022/07/01 04:18:35;;;;;;;;;;;26.50;45.70;;;;;;1604240;72;767;-60
2022/07/01 04:20:37;;;;;;;;;;;26.50;45.70;;;;;;1604416;72;656;-60
2022/07/01 04:22:39;;;;;;;;;;;26.50;45.80;;;;;;1597107;72;677;-60
2022/07/01 04:24:41;;;;;;;;;;;26.50;45.90;;;;;;1592948;72;1590;-56
2022/07/01 04:26:43;;;;;;;;;;;26.60;45.90;;;;;;1597544;72;1195;-59
2022/07/01 04:28:45;;;;;;;;;;;26.60;46.00;;;;;;1598763;72;652;-59
2022/07/01 04:30:47;;;;;;;;;;;26.50;46.00;;;;;;1594847;72;725;-60
2022/07/01 04:32:48;;;;;;;;;;;26.60;46.00;;;;;;1595543;72;721;-57
2022/07/01 04:34:51;;;;;;;;;;;26.60;46.10;;;;;;1592904;72;744;-56
2022/07/01 04:36:53;;;;;;;;;;;26.60;46.00;;;;;;1600642;72;1926;-58
2022/07/01 04:38:55;;;;;;;;;;;26.60;46.20;;;;;;1608777;72;1546;-58
2022/07/01 04:43:17;;;;;;;;;;;26.60;46.10;;;;;;1622109;72;1638;-59
2022/07/01 04:45:19;;;;;;;;;;;26.60;46.20;;;;;;1619141;72;689;-57
2022/07/01 04:47:23;;;;;;;;;;;26.70;46.30;;;;;;1595845;72;1143;-59
2022/07/01 04:49:25;;;;;;;;;;;26.70;46.30;;;;;;1602987;72;670;-60
2022/07/01 04:51:26;;;;;;;;;;;26.60;46.40;;;;;;1596708;72;808;-61
2022/07/01 04:53:28;;;;;;;;;;;26.60;46.50;;;;;;1592022;72;1439;-60
2022/07/01 04:55:30;;;;;;;;;;;26.60;46.50;;;;;;1609893;72;908;-57
2022/07/01 04:57:32;;;;;;;;;;;26.60;46.50;;;;;;1598190;72;1965;-58
2022/07/01 04:59:34;;;;;;;;;;;26.60;46.50;;;;;;1605396;72;660;-59
2022/07/01 05:01:36;;;;;;;;;;;26.60;46.50;;;;;;1612352;72;705;-59
2022/07/01 05:03:38;;;;;;;;;;;26.70;46.50;;;;;;1600450;72;683;-58
2022/07/01 05:05:40;;;;;;;;;;;26.60;46.40;;;;;;1600318;72;1536;-56
2022/07/01 05:07:42;;;;;;;;;;;26.70;46.40;;;;;;1605726;72;1134;-61
2022/07/01 05:09:44;;;;;;;;;;;26.70;46.30;;;;;;1608338;72;723;-59
2022/07/01 05:11:46;;;;;;;;;;;26.80;46.40;;;;;;1611415;72;679;-61
2022/07/01 05:13:48;;;;;;;;;;;26.80;46.30;;;;;;1617220;72;669;-58
2022/07/01 05:15:49;;;;;;;;;;;26.80;46.10;;;;;;1620777;72;789;-57
2022/07/01 05:22:31;;;;;;;;;;;26.70;46.10;;;;;;1603329;72;1614;-61
2022/07/01 05:24:33;;;;;;;;;;;26.60;46.20;;;;;;1616721;72;818;-61
2022/07/01 05:26:35;;;;;;;;;;;26.60;46.20;;;;;;1615763;72;1211;-59
2022/07/01 05:28:37;;;;;;;;;;;26.60;46.30;;;;;;1608963;72;665;-59
2022/07/01 05:30:39;;;;;;;;;;;26.70;46.30;;;;;;1618521;72;679;-57
2022/07/01 05:32:40;;;;;;;;;;;26.50;46.30;;;;;;1612351;72;567;-56
2022/07/01 05:34:44;;;;;;;;;;;26.60;46.40;;;;;;1605989;72;1319;-60
2022/07/01 05:36:46;;;;;;;;;;;26.60;46.40;;;;;;1613029;72;1928;-57
2022/07/01 05:38:48;;;;;;;;;;;26.70;46.40;;;;;;1615848;72;1082;-58
2022/07/01 05:40:52;;;;;;;;;;;26.60;46.40;;;;;;1628072;72;662;-59
2022/07/01 05:42:53;;;;;;;;;;;26.60;46.40;;;;;;1612503;72;1766;-58
2022/07/01 05:44:55;;;;;;;;;;;26.60;46.50;;;;;;1595687;72;690;-55
2022/07/01 05:46:57;;;;;;;;;;;26.60;46.50;;;;;;1617274;72;1140;-61
2022/07/01 05:48:59;;;;;;;;;;;26.60;46.50;;;;;;1610597;72;1542;-58
2022/07/01 05:51:02;;;;;;;;;;;26.60;46.50;;;;;;1606062;72;725;-58
2022/07/01 05:53:04;;;;;;;;;;;26.60;46.50;;;;;;1580259;73;643;-57
2022/07/01 05:55:07;;;;;;;;;;;26.60;46.60;;;;;;1609223;72;916;-56
2022/07/01 05:57:09;;;;;;;;;;;26.50;46.50;;;;;;1611922;72;1940;-57
2022/07/01 05:59:11;;;;;;;;;;;26.50;46.60;;;;;;1623149;72;667;-60
2022/07/01 06:01:13;;;;;;;;;;;26.40;46.60;;;;;;1611086;72;671;-58
2022/07/01 06:03:15;;;;;;;;;;;26.40;46.60;;;;;;1624953;72;1562;-58
2022/07/01 06:05:17;;;;;;;;;;;26.50;46.70;;;;;;1611576;72;736;-60
2022/07/01 06:07:19;;;;;;;;;;;26.40;46.70;;;;;;1624064;72;1137;-56
2022/07/01 06:09:21;;;;;;;;;;;26.40;46.60;;;;;;1615413;72;571;-61
2022/07/01 06:11:22;;;;;;;;;;;26.50;46.70;;;;;;1610360;72;678;-60
2022/07/01 06:13:24;;;;;;;;;;;26.40;46.70;;;;;;1610206;72;730;-58
2022/07/01 06:15:26;;;;;;;;;;;26.40;46.70;;;;;;1611192;72;721;-58
2022/07/01 06:17:29;;;;;;;;;;;26.40;46.70;;;;;;1603984;72;1943;-57
2022/07/01 06:19:30;;;;;;;;;;;26.40;46.80;;;;;;1602216;72;854;-58
2022/07/01 06:21:32;;;;;;;;;;;26.40;46.80;;;;;;1597837;72;738;-57
2022/07/01 06:23:34;;;;;;;;;;;26.40;46.80;;;;;;1606370;72;746;-58
2022/07/01 06:25:36;;;;;;;;;;;26.40;46.80;;;;;;1607165;72;662;-57
2022/07/01 06:27:39;;;;;;;;;;;26.40;46.80;;;;;;1600452;72;1135;-60
2022/07/01 06:29:41;;;;;;;;;;;26.40;46.80;;;;;;1599025;72;778;-58
2022/07/01 06:31:43;;;;;;;;;;;26.30;46.70;;;;;;1601993;72;1567;-59
2022/07/01 06:33:45;;;;;;;;;;;26.30;46.60;;;;;;1616833;72;671;-58
2022/07/01 06:35:46;;;;;;;;;;;26.30;46.70;;;;;;1606566;72;763;-57
2022/07/01 06:37:48;;;;;;;;;;;26.30;46.50;;;;;;1607680;72;1944;-59
2022/07/01 06:39:50;;;;;;;;;;;26.30;46.50;;;;;;1607164;72;675;-60
2022/07/01 06:41:52;;;;;;;;;;;26.30;46.30;;;;;;1609541;72;739;-58
2022/07/01 06:43:54;;;;;;;;;;;26.20;46.20;;;;;;1603717;72;670;-57
2022/07/01 06:45:56;;;;;;;;;;;26.20;46.00;;;;;;1614140;72;1707;-56
2022/07/01 06:47:58;;;;;;;;;;;26.20;46.00;;;;;;1612064;72;1050;-60
2022/07/01 06:50:00;;;;;;;;;;;26.10;45.80;;;;;;1606938;72;764;-59
2022/07/01 06:52:02;;;;;;;;;;;26.20;45.70;;;;;;1617695;72;638;-60
2022/07/01 06:54:04;;;;;;;;;;;26.20;45.60;;;;;;1607168;72;666;-59
2022/07/01 06:56:06;;;;;;;;;;;26.20;45.50;;;;;;1601370;72;1203;-58
2022/07/01 06:58:09;;;;;;;;;;;26.10;45.40;;;;;;1603760;72;1965;-59
2022/07/01 07:00:12;;;;;;;;;;;26.10;45.40;;;;;;1615999;72;739;-60
2022/07/01 07:02:14;;;;;;;;;;;26.10;45.30;;;;;;1615329;72;696;-58
2022/07/01 07:04:16;;;;;;;;;;;26.10;45.30;;;;;;1610993;72;679;-60
2022/07/01 07:06:18;;;;;;;;;;;26.10;45.20;;;;;;1598826;72;1107;-57
2022/07/01 07:08:20;;;;;;;;;;;26.10;45.20;;;;;;1611285;72;687;-57
2022/07/01 07:10:22;;;;;;;;;;;26.10;45.20;;;;;;1598924;72;723;-60
2022/07/01 07:12:24;;;;;;;;;;;26.00;45.10;;;;;;1608408;72;1514;-60
2022/07/01 07:14:26;;;;;;;;;;;26.10;44.80;;;;;;1614963;72;727;-58
2022/07/01 07:16:28;;;;;;;;;;;26.10;44.70;;;;;;1617720;72;1131;-59
2022/07/01 07:18:30;;;;;;;;;;;26.10;44.70;;;;;;1601722;72;1913;-59
2022/07/01 07:20:32;;;;;;;;;;;26.00;44.60;;;;;;1602546;72;747;-58
2022/07/01 07:22:34;;;;;;;;;;;26.00;44.50;;;;;;1598044;72;812;-60
2022/07/01 07:24:36;;;;;;;;;;;26.00;44.40;;;;;;1587755;70;222332;-69
2022/07/01 07:26:38;;;;;;;;;;;26.10;44.30;;;;;;1553772;74;1437;-69
2022/07/01 07:28:40;;;;;;;;;;;26.00;44.20;;;;;;1556585;74;674;-68
2022/07/01 07:30:42;;;;;;;;;;;26.00;44.10;;;;;;1548282;74;644;-69
2022/07/01 07:32:44;;;;;;;;;;;26.00;43.90;;;;;;1546460;74;758;-69
2022/07/01 07:34:46;;;;;;;;;;;25.90;43.30;;;;;;1548558;74;1204;-70
2022/07/01 07:36:48;;;;;;;;;;;25.90;43.10;;;;;;1561772;74;681;-71
2022/07/01 07:38:50;;;;;;;;;;;25.90;43.10;;;;;;1555271;74;1922;-71
2022/07/01 07:40:52;;;;;;;;;;;25.90;42.90;;;;;;1556009;74;1469;-70
2022/07/01 07:42:54;;;;;;;;;;;25.90;42.70;;;;;;1556047;74;682;-70
2022/07/01 07:44:56;;;;;;;;;;;25.90;42.60;;;;;;1549348;74;1120;-68
2022/07/01 07:46:58;;;;;;;;;;;25.90;42.60;;;;;;1548900;74;660;-71
2022/07/01 07:49:00;;;;;;;;;;;25.90;42.50;;;;;;1551308;74;680;-67
2022/07/01 07:51:02;;;;;;;;;;;25.80;42.50;;;;;;1546648;74;624;-69
2022/07/01 07:53:03;;;;;;;;;;;25.80;42.40;;;;;;1554450;74;682;-70
2022/07/01 07:55:06;;;;;;;;;;;25.80;42.40;;;;;;1550970;74;1480;-70
2022/07/01 07:57:08;;;;;;;;;;;25.80;42.20;;;;;;1544037;74;665;-69
2022/07/01 07:59:10;;;;;;;;;;;25.80;42.10;;;;;;1548568;74;1912;-71
2022/07/01 08:01:12;;;;;;;;;;;25.80;42.10;;;;;;1544848;74;693;-68
2022/07/01 08:03:14;;;;;;;;;;;25.80;42.00;;;;;;1545603;74;691;-70
2022/07/01 08:05:16;;;;;;;;;;;25.70;41.90;;;;;;1548858;74;1136;-72
2022/07/01 08:07:18;;;;;;;;;;;25.70;41.90;;;;;;1557061;74;621;-71
2022/07/01 08:09:20;;;;;;;;;;;25.70;41.80;;;;;;1559088;74;1371;-71
2022/07/01 08:11:22;;;;;;;;;;;25.70;41.80;;;;;;1553399;73;660;-71
2022/07/01 08:13:23;;;;;;;;;;;25.70;41.80;;;;;;1555974;74;731;-70
2022/07/01 08:15:25;;;;;;;;;;;25.70;41.90;;;;;;1551640;74;1118;-71
2022/07/01 08:17:27;;;;;;;;;;;25.70;42.00;;;;;;1556679;74;1936;-70
2022/07/01 08:19:29;;;;;;;;;;;25.70;42.00;;;;;;1558170;74;634;-71
2022/07/01 08:21:31;;;;;;;;;;;25.70;42.00;;;;;;1554495;74;649;-70
2022/07/01 08:23:33;;;;;;;;;;;25.70;42.00;;;;;;1553625;74;1533;-71
2022/07/01 08:25:35;;;;;;;;;;;25.70;42.00;;;;;;1549712;74;1103;-69
2022/07/01 08:27:37;;;;;;;;;;;25.70;42.00;;;;;;1556769;74;696;-69
2022/07/01 08:29:39;;;;;;;;;;;25.70;42.00;;;;;;1559271;74;687;-70
2022/07/01 08:31:41;;;;;;;;;;;25.60;42.10;;;;;;1553137;74;652;-69
2022/07/01 08:33:43;;;;;;;;;;;25.70;42.10;;;;;;1564711;74;671;-71
2022/07/01 08:35:44;;;;;;;;;;;25.70;42.10;;;;;;1554955;74;641;-71
2022/07/01 08:37:46;;;;;;;;;;;25.70;42.10;;;;;;1558153;74;1918;-71
2022/07/01 08:39:48;;;;;;;;;;;25.60;42.20;;;;;;1549111;74;764;-71
2022/07/01 08:41:50;;;;;;;;;;;25.60;42.20;;;;;;1555422;76;668;-71
2022/07/01 08:43:52;;;;;;;;;;;25.60;42.10;;;;;;1558273;74;1133;-71
2022/07/01 08:45:54;;;;;;;;;;;25.60;42.10;;;;;;1550577;74;703;-71
2022/07/01 08:48:00;;;;;;;;;;;25.60;42.10;;;;;;1546698;74;758;-71
2022/07/01 08:50:01;;;;;;;;;;;25.70;42.10;;;;;;1545199;74;1480;-72
2022/07/01 08:52:03;;;;;;;;;;;25.60;42.20;;;;;;1543590;74;1408;-70
2022/07/01 08:54:05;;;;;;;;;;;25.70;42.20;;;;;;1545238;74;1198;-71
2022/07/01 08:58:28;;;;;;;;;;;25.70;42.30;;;;;;1556859;74;1884;-72
2022/07/01 09:00:30;;;;;;;;;;;25.60;42.30;;;;;;1545931;74;728;-69
2022/07/01 09:02:53;;;;;;;;;;;25.70;42.30;;;;;;1554713;74;632;-70
2022/07/01 09:05:07;;;;;;;;;;;25.70;42.40;;;;;;1554139;74;1467;-70
2022/07/01 09:07:09;;;;;;;;;;;25.70;42.40;;;;;;1556681;74;751;-69
2022/07/01 09:09:12;;;;;;;;;;;25.70;42.40;;;;;;1553739;74;698;-69
2022/07/01 09:11:24;;;;;;;;;;;25.70;42.40;;;;;;1549930;74;755;-70
2022/07/01 09:13:25;;;;;;;;;;;25.70;42.50;;;;;;1554528;74;671;-70
2022/07/01 09:15:31;;;;;;;;;;;25.60;42.40;;;;;;1562149;74;1117;-70
2022/07/01 09:17:33;;;;;;;;;;;25.60;42.40;;;;;;1557517;74;721;-70
2022/07/01 09:19:36;;;;;;;;;;;25.60;42.50;;;;;;1533720;75;1940;-71
2022/07/01 09:21:38;;;;;;;;;;;25.70;42.50;;;;;;1556683;74;562;-70
2022/07/01 09:23:40;;;;;;;;;;;25.70;42.50;;;;;;1553212;74;669;-72
2022/07/01 09:25:47;;;;;;;;;;;25.70;42.50;;;;;;1564131;74;1233;-69
2022/07/01 09:27:50;;;;;;;;;;;25.70;42.60;;;;;;1574233;74;605;-70
2022/07/01 09:29:52;;;;;;;;;;;25.70;42.60;;;;;;1553522;74;1733;-71
2022/07/01 09:31:54;;;;;;;;;;;25.70;42.60;;;;;;1564465;74;616;-70
2022/07/01 09:34:07;;;;;;;;;;;25.60;42.70;;;;;;1568403;74;1448;-67
2022/07/01 09:36:09;;;;;;;;;;;25.60;42.70;;;;;;1565360;74;691;-69
2022/07/01 09:38:11;;;;;;;;;;;25.60;42.80;;;;;;1538811;75;1935;-70
2022/07/01 09:40:13;;;;;;;;;;;25.60;42.80;;;;;;1557809;74;701;-67
2022/07/01 09:42:17;;;;;;;;;;;25.60;42.80;;;;;;1556382;74;751;-72
2022/07/01 09:44:19;;;;;;;;;;;25.70;42.80;;;;;;1553561;74;1155;-68
2022/07/01 09:46:21;;;;;;;;;;;25.70;42.80;;;;;;1559985;74;658;-69
2022/07/01 09:48:23;;;;;;;;;;;25.70;42.90;;;;;;1553993;74;1605;-67
2022/07/01 09:50:25;;;;;;;;;;;25.70;42.90;;;;;;1565683;74;690;-69
2022/07/01 09:52:27;;;;;;;;;;;25.70;42.80;;;;;;1566732;74;670;-69
2022/07/01 09:54:29;;;;;;;;;;;25.70;42.80;;;;;;1564618;74;1166;-69
2022/07/01 09:56:31;;;;;;;;;;;25.70;42.80;;;;;;1558381;74;740;-68
2022/07/01 09:58:34;;;;;;;;;;;25.70;42.80;;;;;;1564354;74;1934;-69
2022/07/01 10:00:37;;;;;;;;;;;25.70;42.70;;;;;;1558158;74;670;-68
2022/07/01 10:02:39;;;;;;;;;;;25.70;42.60;;;;;;1559504;74;1503;-68
2022/07/01 10:04:42;;;;;;;;;;;25.70;42.50;;;;;;1562589;74;1124;-65
2022/07/01 10:06:55;;;;;;;;;;;25.70;42.40;;;;;;1566338;74;807;-68
2022/07/01 10:09:04;;;;;;;;;;;25.70;42.20;;;;;;1569227;74;1338;-65
2022/07/01 10:11:17;;;;;;;;;;;25.70;42.10;;;;;;1564173;74;1441;-68
2022/07/01 10:13:19;;;;;;;;;;;25.70;42.00;;;;;;1561534;74;700;-68
2022/07/01 10:15:21;;;;;;;;;;;25.70;41.90;;;;;;1568005;74;1509;-65
2022/07/01 10:17:27;;;;;;;;;;;25.60;41.80;;;;;;1573163;74;712;-69
2022/07/01 10:19:30;;;;;;;;;;;25.60;41.90;;;;;;1559702;74;1928;-69
2022/07/01 10:21:32;;;;;;;;;;;25.70;41.80;;;;;;1561799;74;686;-69
2022/07/01 10:23:41;;;;;;;;;;;25.60;41.70;;;;;;1571008;74;615;-69
2022/07/01 10:25:44;;;;;;;;;;;25.60;41.70;;;;;;1566616;74;1129;-66
2022/07/01 10:27:45;;;;;;;;;;;25.60;41.70;;;;;;1560936;74;886;-70
2022/07/01 10:29:48;;;;;;;;;;;25.60;41.70;;;;;;1555832;74;1482;-69
2022/07/01 10:31:49;;;;;;;;;;;25.70;41.80;;;;;;1572555;74;739;-71
2022/07/01 10:33:53;;;;;;;;;;;25.50;41.70;;;;;;1579154;74;1148;-68
2022/07/01 10:35:55;;;;;;;;;;;25.60;41.80;;;;;;1568632;74;1679;-68
2022/07/01 10:38:01;;;;;;;;;;;25.50;41.80;;;;;;1559169;74;680;-71
2022/07/01 10:40:03;;;;;;;;;;;25.50;41.80;;;;;;1564933;74;1904;-71
2022/07/01 10:42:07;;;;;;;;;;;25.60;41.80;;;;;;1567255;74;676;-71
2022/07/01 10:44:09;;;;;;;;;;;25.50;41.80;;;;;;1564408;74;1469;-71
2022/07/01 10:46:11;;;;;;;;;;;25.50;41.80;;;;;;1578035;74;716;-71
2022/07/01 10:48:21;;;;;;;;;;;25.50;41.80;;;;;;1540840;75;1366;-71
2022/07/01 10:50:22;;;;;;;;;;;25.50;41.80;;;;;;1571108;74;1659;-71
2022/07/01 10:52:24;;;;;;;;;;;25.50;41.80;;;;;;1565153;73;610;-70
2022/07/01 10:54:39;;;;;;;;;;;25.60;41.90;;;;;;1566151;74;1157;-70
2022/07/01 10:56:41;;;;;;;;;;;25.60;41.90;;;;;;1580700;74;689;-71
2022/07/01 10:58:42;;;;;;;;;;;25.50;41.90;;;;;;1567152;73;1931;-69
2022/07/01 11:00:45;;;;;;;;;;;25.60;41.90;;;;;;1561409;74;662;-70
2022/07/01 11:02:47;;;;;;;;;;;25.50;41.90;;;;;;1560949;74;680;-68
2022/07/01 11:04:49;;;;;;;;;;;25.60;41.90;;;;;;1557091;74;1136;-71
2022/07/01 11:06:51;;;;;;;;;;;25.50;41.90;;;;;;1550266;74;803;-70
2022/07/01 11:08:53;;;;;;;;;;;25.60;41.90;;;;;;1536637;75;691;-70
2022/07/01 11:10:57;;;;;;;;;;;25.60;41.90;;;;;;1559303;74;646;-70
2022/07/01 11:13:00;;;;;;;;;;;25.60;41.90;;;;;;1559798;74;1344;-71
2022/07/01 11:15:01;;;;;;;;;;;25.50;42.00;;;;;;1555165;74;1168;-71
2022/07/01 11:17:04;;;;;;;;;;;25.60;41.90;;;;;;1562652;74;681;-71
2022/07/01 11:19:06;;;;;;;;;;;25.50;41.90;;;;;;1560102;74;1939;-71
2022/07/01 11:21:09;;;;;;;;;;;25.50;41.90;;;;;;1559577;74;683;-71
2022/07/01 11:23:11;;;;;;;;;;;25.60;41.80;;;;;;1559871;74;656;-70
2022/07/01 11:25:13;;;;;;;;;;;25.50;41.80;;;;;;1563557;74;1095;-71
2022/07/01 11:27:15;;;;;;;;;;;25.60;41.80;;;;;;1564140;74;1532;-71
2022/07/01 11:29:26;;;;;;;;;;;25.50;41.80;;;;;;1563516;74;733;-70
2022/07/01 11:31:29;;;;;;;;;;;25.60;41.80;;;;;;1567675;74;675;-70
2022/07/01 11:33:30;;;;;;;;;;;25.50;41.80;;;;;;1563380;74;635;-70
2022/07/01 11:40:13;;;;;;;;;;;25.50;41.80;;;;;;1560284;74;1884;-73
2022/07/01 11:42:15;;;;;;;;;;;25.60;41.90;;;;;;1559531;74;641;-69
2022/07/01 11:44:18;;;;;;;;;;;25.50;42.10;;;;;;1556870;74;1183;-69
2022/07/01 11:46:20;;;;;;;;;;;25.50;42.10;;;;;;1562101;74;1764;-70
2022/07/01 11:48:29;;;;;;;;;;;25.50;42.10;;;;;;1558983;74;725;-69
2022/07/01 11:50:32;;;;;;;;;;;25.50;42.10;;;;;;1562321;74;665;-68
2022/07/01 11:52:34;;;;;;;;;;;25.50;42.10;;;;;;1562448;74;977;-68
2022/07/01 11:54:37;;;;;;;;;;;25.50;42.10;;;;;;1568135;74;1397;-70
2022/07/01 11:56:41;;;;;;;;;;;25.50;42.10;;;;;;1557879;74;561;-69
2022/07/01 11:58:42;;;;;;;;;;;25.50;42.10;;;;;;1563739;74;1666;-67
2022/07/01 12:00:44;;;;;;;;;;;25.50;42.10;;;;;;1556635;74;697;-70
2022/07/01 12:02:48;;;;;;;;;;;25.50;42.20;;;;;;1561681;74;668;-66
2022/07/01 12:04:50;;;;;;;;;;;25.50;42.10;;;;;;1558095;74;1674;-70
2022/07/01 12:06:52;;;;;;;;;;;25.50;42.10;;;;;;1563375;74;679;-70
2022/07/01 12:08:56;;;;;;;;;;;25.50;42.10;;;;;;1564038;74;1543;-70
2022/07/01 12:11:02;;;;;;;;;;;25.50;42.10;;;;;;1559195;74;1588;-67
2022/07/01 12:13:01;;;;;;;;;;;25.50;42.10;;;;;;1560262;74;1508;-70
2022/07/01 12:15:03;;;;;;;;;;;25.50;42.10;;;;;;1538076;75;1140;-69
2022/07/01 12:17:05;;;;;;;;;;;25.40;42.20;;;;;;1566371;74;677;-69
2022/07/01 12:19:09;;;;;;;;;;;25.50;42.20;;;;;;1559076;74;1907;-70
2022/07/01 12:21:10;;;;;;;;;;;25.50;42.30;;;;;;1569520;74;606;-70
2022/07/01 12:23:13;;;;;;;;;;;25.50;42.30;;;;;;1563631;74;1608;-69
2022/07/01 12:25:17;;;;;;;;;;;25.50;42.30;;;;;;1559549;74;1109;-69
2022/07/01 12:27:22;;;;;;;;;;;25.50;42.30;;;;;;1566974;74;778;-70